createdAt,value
2023-05-03T00:00:15.737Z,24.93
2023-05-03T00:02:44.088Z,24.94
2023-05-03T00:05:14.629Z,24.95
2023-05-03T00:07:42.764Z,25.04
2023-05-03T00:10:13.117Z,24.96
2023-05-03T00:12:40.073Z,25.02
2023-05-03T00:15:08.148Z,24.89
2023-05-03T00:17:38.593Z,25.06
2023-05-03T00:20:06.920Z,24.93
2023-05-03T00:22:33.732Z,24.93
2023-05-03T00:25:00.756Z,24.94
2023-05-03T00:27:28.393Z,25.11
2023-05-03T00:29:55.322Z,24.95
2023-05-03T00:32:22.273Z,25.08
2023-05-03T00:34:58.418Z,25.12
2023-05-03T00:37:25.807Z,25.11
2023-05-03T00:39:53.303Z,25.24
2023-05-03T00:42:20.197Z,25.22
2023-05-03T00:44:47.155Z,25.25
2023-05-03T00:47:15.407Z,25.31
2023-05-03T00:49:42.369Z,25.38
2023-05-03T00:52:09.612Z,25.44
2023-05-03T00:54:37.387Z,25.58
2023-05-03T00:57:04.337Z,25.49
2023-05-03T00:59:32.551Z,25.56
2023-05-03T01:01:59.796Z,25.65
2023-05-03T01:04:27.322Z,25.96
2023-05-03T01:07:06.156Z,25.75
2023-05-03T01:09:42.921Z,25.87
2023-05-03T01:12:35.372Z,25.84
2023-05-03T01:15:31.639Z,25.94
2023-05-03T01:18:02.603Z,26.09
2023-05-03T01:20:30.406Z,26.11
2023-05-03T01:22:57.558Z,26.14
2023-05-03T01:25:24.710Z,26.26
2023-05-03T01:27:51.710Z,26.24
2023-05-03T01:30:18.531Z,26.29
2023-05-03T01:33:10.435Z,26.39
2023-05-03T01:35:50.214Z,26.43
2023-05-03T01:38:17.036Z,26.50
2023-05-03T01:40:49.149Z,26.57
2023-05-03T01:43:16.564Z,26.54
2023-05-03T01:45:43.437Z,26.49
2023-05-03T01:48:12.575Z,26.69
2023-05-03T01:50:39.546Z,26.68
2023-05-03T01:53:06.311Z,26.69
2023-05-03T01:55:33.746Z,26.72
2023-05-03T01:58:00.688Z,26.80
2023-05-03T02:00:27.633Z,26.81
2023-05-03T02:02:54.447Z,27.00
2023-05-03T02:05:21.244Z,26.87
2023-05-03T02:07:48.034Z,26.96
2023-05-03T02:10:15.837Z,27.00
2023-05-03T02:12:43.496Z,26.98
2023-05-03T02:15:11.581Z,26.95
2023-05-03T02:17:39.763Z,27.02
2023-05-03T02:20:10.086Z,27.11
2023-05-03T02:22:36.822Z,27.12
2023-05-03T02:25:04.457Z,27.17
2023-05-03T02:27:31.321Z,27.19
2023-05-03T02:29:58.164Z,27.18
2023-05-03T02:32:25.736Z,27.28
2023-05-03T02:34:53.360Z,27.32
2023-05-03T02:37:20.569Z,27.28
2023-05-03T02:39:47.611Z,27.45
2023-05-03T02:42:14.752Z,27.43
2023-05-03T02:44:41.672Z,27.49
2023-05-03T02:47:09.153Z,27.35
2023-05-03T02:49:36.301Z,27.43
2023-05-03T02:52:03.099Z,27.36
2023-05-03T02:54:31.006Z,27.36
2023-05-03T02:56:58.981Z,27.26
2023-05-03T02:59:25.734Z,27.26
2023-05-03T03:01:53.614Z,27.37
2023-05-03T03:04:20.870Z,27.30
2023-05-03T03:06:47.987Z,27.11
2023-05-03T03:09:16.016Z,27.22
2023-05-03T03:11:43.233Z,27.12
2023-05-03T03:14:10.037Z,27.18
2023-05-03T03:16:37.305Z,27.01
2023-05-03T03:19:04.179Z,26.90
2023-05-03T03:21:32.207Z,26.80
2023-05-03T03:23:58.985Z,26.69
2023-05-03T03:26:26.153Z,26.53
2023-05-03T03:28:53.107Z,26.61
2023-05-03T03:31:22.484Z,26.61
2023-05-03T03:33:50.044Z,26.63
2023-05-03T03:36:17.125Z,26.60
2023-05-03T03:38:44.447Z,26.51
2023-05-03T03:41:11.502Z,26.38
2023-05-03T03:43:38.566Z,26.34
2023-05-03T03:46:06.599Z,26.10
2023-05-03T03:48:33.701Z,25.98
2023-05-03T03:51:00.625Z,25.81
2023-05-03T03:53:33.189Z,25.50
2023-05-03T03:56:01.603Z,25.22
2023-05-03T03:58:29.369Z,25.04
2023-05-03T04:00:56.203Z,24.70
2023-05-03T04:03:23.634Z,24.46
2023-05-03T04:05:51.629Z,24.19
2023-05-03T04:08:19.484Z,23.98
2023-05-03T04:10:46.523Z,23.49
2023-05-03T04:13:14.159Z,22.93
2023-05-03T04:15:41.250Z,22.54
2023-05-03T04:18:08.425Z,21.72
2023-05-03T04:20:37.283Z,21.22
2023-05-03T04:23:04.845Z,20.45
2023-05-03T04:25:33.021Z,19.74
2023-05-03T04:28:05.119Z,19.13
2023-05-03T04:30:35.171Z,18.65
2023-05-03T04:33:04.161Z,18.01
2023-05-03T04:35:33.823Z,17.28
2023-05-03T04:38:03.729Z,16.78
2023-05-03T04:40:31.300Z,16.06
2023-05-03T04:43:04.997Z,15.54
2023-05-03T04:45:33.690Z,15.29
2023-05-03T04:48:01.418Z,14.83
2023-05-03T04:50:28.700Z,14.63
2023-05-03T04:52:55.578Z,14.33
2023-05-03T04:55:22.957Z,14.00
2023-05-03T04:59:05.714Z,14.24
2023-05-03T05:01:33.125Z,13.37
2023-05-03T05:04:01.744Z,12.90
2023-05-03T05:06:34.533Z,12.65
2023-05-03T05:09:02.308Z,12.45
2023-05-03T05:11:29.473Z,12.16
2023-05-03T05:13:57.650Z,11.91
2023-05-03T05:16:24.729Z,11.51
2023-05-03T05:18:52.883Z,11.36
2023-05-03T05:21:21.559Z,11.10
2023-05-03T05:23:48.537Z,11.03
2023-05-03T05:26:15.462Z,10.73
2023-05-03T05:28:43.220Z,10.38
2023-05-03T05:31:10.591Z,10.08
2023-05-03T05:33:37.614Z,9.81
2023-05-03T05:36:06.311Z,9.83
2023-05-03T05:38:34.002Z,9.58
2023-05-03T05:41:01.438Z,9.54
2023-05-03T05:43:28.896Z,9.53
2023-05-03T05:45:56.093Z,9.30
2023-05-03T05:48:23.305Z,9.05
2023-05-03T05:50:51.013Z,9.10
2023-05-03T05:53:17.916Z,8.85
2023-05-03T05:55:50.565Z,8.68
2023-05-03T05:58:17.955Z,8.57
2023-05-03T06:00:49.267Z,8.48
2023-05-03T06:03:17.053Z,8.28
2023-05-03T06:05:45.218Z,8.31
2023-05-03T06:08:13.011Z,8.44
2023-05-03T06:10:40.259Z,8.27
2023-05-03T06:13:07.437Z,8.32
2023-05-03T06:15:35.075Z,8.44
2023-05-03T06:18:02.216Z,8.57
2023-05-03T06:20:29.428Z,8.44
2023-05-03T06:22:56.965Z,8.77
2023-05-03T06:25:24.307Z,8.79
2023-05-03T06:27:51.380Z,8.94
2023-05-03T06:30:21.344Z,8.90
2023-05-03T06:32:49.500Z,8.88
2023-05-03T06:35:19.733Z,9.14
2023-05-03T06:37:47.135Z,9.01
2023-05-03T06:40:14.258Z,9.03
2023-05-03T06:42:41.229Z,9.28
2023-05-03T06:45:14.616Z,9.14
2023-05-03T06:47:43.143Z,9.17
2023-05-03T06:50:11.010Z,9.24
2023-05-03T06:52:38.216Z,9.42
2023-05-03T06:55:06.394Z,9.31
2023-05-03T06:57:33.347Z,9.61
2023-05-03T07:00:00.441Z,9.74
2023-05-03T07:02:27.596Z,10.14
2023-05-03T07:04:54.800Z,10.55
2023-05-03T07:07:21.918Z,10.76
2023-05-03T07:09:49.746Z,10.95
2023-05-03T07:12:16.693Z,11.08
2023-05-03T07:14:43.736Z,11.21
2023-05-03T07:17:10.662Z,11.17
2023-05-03T07:19:38.717Z,11.08
2023-05-03T07:22:05.691Z,11.30
2023-05-03T07:24:32.845Z,11.45
2023-05-03T07:26:59.631Z,11.55
2023-05-03T07:29:27.758Z,11.43
2023-05-03T07:31:54.859Z,11.43
2023-05-03T07:34:21.988Z,11.55
2023-05-03T07:36:49.033Z,11.39
2023-05-03T07:39:15.991Z,11.47
2023-05-03T07:41:42.983Z,11.57
2023-05-03T07:44:10.093Z,11.33
2023-05-03T07:46:37.103Z,11.63
2023-05-03T07:49:05.055Z,11.67
2023-05-03T07:51:38.518Z,11.91
2023-05-03T07:54:05.612Z,12.02
2023-05-03T07:56:32.667Z,12.18
2023-05-03T07:59:08.542Z,12.21
2023-05-03T08:01:38.202Z,12.02
2023-05-03T08:04:06.647Z,12.07
2023-05-03T08:06:35.854Z,12.41
2023-05-03T08:09:04.979Z,12.69
2023-05-03T08:11:32.487Z,12.94
2023-05-03T08:13:59.441Z,13.17
2023-05-03T08:16:28.462Z,13.28
2023-05-03T08:18:55.445Z,13.37
2023-05-03T08:21:24.891Z,13.21
2023-05-03T08:23:52.107Z,13.27
2023-05-03T08:26:18.980Z,13.57
2023-05-03T08:28:45.820Z,13.50
2023-05-03T08:31:12.873Z,13.48
2023-05-03T08:33:40.211Z,13.82
2023-05-03T08:36:07.777Z,13.76
2023-05-03T08:38:35.030Z,13.78
2023-05-03T08:41:05.170Z,13.90
2023-05-03T08:43:32.320Z,13.86
2023-05-03T08:45:59.258Z,13.87
2023-05-03T08:48:26.293Z,14.13
2023-05-03T08:50:54.158Z,14.21
2023-05-03T08:53:21.114Z,14.64
2023-05-03T08:55:48.307Z,14.63
2023-05-03T08:58:15.214Z,14.78
2023-05-03T09:00:45.184Z,14.94
2023-05-03T09:03:13.332Z,14.91
2023-05-03T09:05:41.520Z,15.07
2023-05-03T09:08:13.179Z,15.21
2023-05-03T09:10:46.017Z,15.55
2023-05-03T09:13:13.002Z,15.70
2023-05-03T09:15:40.049Z,15.53
2023-05-03T09:18:18.237Z,15.45
2023-05-03T09:20:52.023Z,15.79
2023-05-03T09:23:28.778Z,15.70
2023-05-03T09:25:56.056Z,15.90
2023-05-03T09:28:23.193Z,16.02
2023-05-03T09:30:50.523Z,15.78
2023-05-03T09:33:29.130Z,15.54
2023-05-03T09:35:57.410Z,15.73
2023-05-03T09:38:28.322Z,15.82
2023-05-03T09:40:55.167Z,15.75
2023-05-03T09:43:22.043Z,15.71
2023-05-03T09:45:49.041Z,15.64
2023-05-03T09:48:15.993Z,16.07
2023-05-03T09:50:43.026Z,15.95
2023-05-03T09:53:09.892Z,15.92
2023-05-03T09:55:39.154Z,15.87
2023-05-03T09:58:06.748Z,15.81
2023-05-03T10:00:40.762Z,16.03
2023-05-03T10:03:09.331Z,15.99
2023-05-03T10:05:48.892Z,15.87
2023-05-03T10:08:28.210Z,15.61
2023-05-03T10:10:55.325Z,15.75
2023-05-03T10:13:22.817Z,15.83
2023-05-03T10:15:53.073Z,15.64
2023-05-03T10:18:19.902Z,15.55
2023-05-03T10:20:52.768Z,15.74
2023-05-03T10:23:19.548Z,15.55
2023-05-03T10:26:13.585Z,15.36
2023-05-03T10:28:40.585Z,15.74
2023-05-03T10:31:29.160Z,15.63
2023-05-03T10:34:01.077Z,15.54
2023-05-03T10:36:38.337Z,15.41
2023-05-03T10:39:15.343Z,15.54
2023-05-03T10:41:44.128Z,15.65
2023-05-03T10:44:34.854Z,15.56
2023-05-03T10:47:17.407Z,15.86
2023-05-03T10:49:44.699Z,15.77
2023-05-03T10:52:39.651Z,15.71
2023-05-03T10:55:14.685Z,15.76
2023-05-03T10:57:42.848Z,15.70
2023-05-03T11:00:16.451Z,15.59
2023-05-03T11:03:04.324Z,15.89
2023-05-03T11:05:31.330Z,15.88
2023-05-03T11:08:19.348Z,15.84
2023-05-03T11:10:46.877Z,16.23
2023-05-03T11:13:14.155Z,16.04
2023-05-03T11:15:41.085Z,16.26
2023-05-03T11:18:08.368Z,16.24
2023-05-03T11:20:36.456Z,16.23
2023-05-03T11:23:04.241Z,16.21
2023-05-03T11:25:31.088Z,16.48
2023-05-03T11:27:57.864Z,16.51
2023-05-03T11:30:24.841Z,16.80
2023-05-03T11:32:51.730Z,16.71
2023-05-03T11:35:19.425Z,16.53
2023-05-03T11:37:46.220Z,16.73
2023-05-03T11:40:19.691Z,16.66
2023-05-03T11:42:59.875Z,16.65
2023-05-03T11:45:32.173Z,16.59
2023-05-03T11:47:59.536Z,16.55
2023-05-03T11:50:48.403Z,16.41
2023-05-03T11:53:15.618Z,16.35
2023-05-03T11:55:43.960Z,16.37
2023-05-03T11:58:29.013Z,16.58
2023-05-03T12:00:57.227Z,16.48
2023-05-03T12:03:28.890Z,16.27
2023-05-03T12:05:57.654Z,16.48
2023-05-03T12:08:30.902Z,16.45
2023-05-03T12:10:59.854Z,16.38
2023-05-03T12:13:30.646Z,16.78
2023-05-03T12:16:11.551Z,16.80
2023-05-03T12:18:52.430Z,17.06
2023-05-03T12:23:55.862Z,16.91
2023-05-03T12:26:26.732Z,16.98
2023-05-03T12:28:56.166Z,17.18
2023-05-03T12:31:23.918Z,17.16
2023-05-03T12:36:25.910Z,17.15
2023-05-03T12:38:56.203Z,17.18
2023-05-03T12:43:58.609Z,17.11
2023-05-03T12:46:34.594Z,17.38
2023-05-03T12:49:06.407Z,17.33
2023-05-03T12:51:34.381Z,17.21
2023-05-03T12:54:02.190Z,17.27
2023-05-03T12:56:32.830Z,17.27
2023-05-03T13:04:34.458Z,17.27
2023-05-03T13:06:47.764Z,17.23
2023-05-03T13:11:48.312Z,17.28
2023-05-03T13:14:16.444Z,17.39
2023-05-03T13:16:44.311Z,17.32
2023-05-03T13:19:14.338Z,17.35
2023-05-03T13:21:54.140Z,17.59
2023-05-03T13:24:21.075Z,17.67
2023-05-03T13:26:47.953Z,17.31
2023-05-03T13:29:14.790Z,17.35
2023-05-03T13:31:41.874Z,17.33
2023-05-03T13:34:08.809Z,17.38
2023-05-03T13:36:35.910Z,17.55
2023-05-03T13:39:02.948Z,17.61
2023-05-03T13:41:29.796Z,17.61
2023-05-03T13:43:56.743Z,17.57
2023-05-03T13:46:24.299Z,17.54
2023-05-03T13:48:53.015Z,17.73
2023-05-03T13:51:19.991Z,17.74
2023-05-03T13:53:47.180Z,17.64
2023-05-03T13:56:14.364Z,17.74
2023-05-03T13:58:41.586Z,17.97
2023-05-03T14:01:08.725Z,17.90
2023-05-03T14:03:35.893Z,17.98
2023-05-03T14:06:03.215Z,18.05
2023-05-03T14:08:30.311Z,18.23
2023-05-03T14:10:57.245Z,18.08
2023-05-03T14:13:24.956Z,18.27
2023-05-03T14:15:52.064Z,18.33
2023-05-03T14:18:19.278Z,18.32
2023-05-03T14:20:47.074Z,18.33
2023-05-03T14:23:13.881Z,18.42
2023-05-03T14:25:41.237Z,18.78
2023-05-03T14:28:08.102Z,18.87
2023-05-03T14:30:35.326Z,18.83
2023-05-03T14:33:03.054Z,18.74
2023-05-03T14:35:30.600Z,18.87
2023-05-03T14:37:57.501Z,18.92
2023-05-03T14:40:24.684Z,19.11
2023-05-03T14:42:51.671Z,19.24
2023-05-03T14:45:18.715Z,19.21
2023-05-03T14:47:46.247Z,19.29
2023-05-03T14:50:13.765Z,19.46
2023-05-03T14:52:40.732Z,19.26
2023-05-03T14:55:08.789Z,19.28
2023-05-03T14:57:36.457Z,19.38
2023-05-03T15:00:05.115Z,19.42
2023-05-03T15:02:32.396Z,19.59
2023-05-03T15:05:00.106Z,19.64
2023-05-03T15:07:27.220Z,19.67
2023-05-03T15:09:54.247Z,19.87
2023-05-03T15:12:21.816Z,19.71
2023-05-03T15:14:49.703Z,19.92
2023-05-03T15:17:16.872Z,19.94
2023-05-03T15:19:43.881Z,19.90
2023-05-03T15:22:10.995Z,19.86
2023-05-03T15:24:37.965Z,19.97
2023-05-03T15:27:05.065Z,19.77
2023-05-03T15:29:32.180Z,19.93
2023-05-03T15:31:59.789Z,20.04
2023-05-03T15:34:27.409Z,19.97
2023-05-03T15:36:54.548Z,20.01
2023-05-03T15:39:24.633Z,19.93
2023-05-03T15:41:54.587Z,19.98
2023-05-03T15:44:24.345Z,20.00
2023-05-03T15:46:54.680Z,19.85
2023-05-03T15:49:25.677Z,20.02
2023-05-03T15:51:55.011Z,20.16
2023-05-03T15:54:24.570Z,20.27
2023-05-03T15:56:55.712Z,20.31
2023-05-03T15:59:25.076Z,20.21
2023-05-03T16:01:54.789Z,20.32
2023-05-03T16:04:25.797Z,20.29
2023-05-03T16:06:55.440Z,20.38
2023-05-03T16:09:24.182Z,20.40
2023-05-03T16:11:54.252Z,20.33
2023-05-03T16:14:25.764Z,20.32
2023-05-03T16:16:56.792Z,20.37
2023-05-03T16:19:27.762Z,20.25
2023-05-03T16:21:57.888Z,20.35
2023-05-03T16:24:28.510Z,20.47
2023-05-03T16:26:58.785Z,20.60
2023-05-03T16:29:29.309Z,20.78
2023-05-03T16:31:58.895Z,20.75
2023-05-03T16:34:28.740Z,20.77
2023-05-03T16:36:58.020Z,20.75
2023-05-03T16:47:02.618Z,21.38
2023-05-03T16:49:33.309Z,21.48
2023-05-03T16:52:01.253Z,21.42
2023-05-03T16:54:28.609Z,21.54
2023-05-03T16:56:56.166Z,21.81
2023-05-03T16:59:23.824Z,21.93
2023-05-03T17:01:51.185Z,22.05
2023-05-03T17:04:18.234Z,22.19
2023-05-03T17:06:45.287Z,22.12
2023-05-03T17:09:13.558Z,22.30
2023-05-03T17:11:40.652Z,22.68
2023-05-03T17:14:08.912Z,22.71
2023-05-03T17:17:24.194Z,24.64
2023-05-03T17:19:51.154Z,23.75
2023-05-03T17:22:18.055Z,23.88
2023-05-03T17:24:45.108Z,23.83
2023-05-03T17:27:12.163Z,23.85
2023-05-03T17:29:39.717Z,23.90
2023-05-03T17:32:06.773Z,23.96
2023-05-03T17:34:33.642Z,24.05
2023-05-03T17:37:00.667Z,24.12
2023-05-03T17:39:28.736Z,24.40
2023-05-03T17:41:55.676Z,24.64
2023-05-03T17:44:23.357Z,24.79
2023-05-03T17:46:52.259Z,24.96
2023-05-03T17:49:19.900Z,24.69
2023-05-03T17:51:46.858Z,24.73
2023-05-03T17:54:13.724Z,24.67
2023-05-03T17:56:40.745Z,24.81
2023-05-03T17:59:08.108Z,25.04
2023-05-03T18:01:35.495Z,26.60
2023-05-03T18:04:02.554Z,26.89
2023-05-03T18:06:29.767Z,27.68
2023-05-03T18:08:57.458Z,28.59
2023-05-03T18:11:24.498Z,29.62
2023-05-03T18:13:51.522Z,30.17
2023-05-03T18:16:18.917Z,30.57
2023-05-03T18:18:45.831Z,30.81
2023-05-03T18:21:12.868Z,31.11
2023-05-03T18:23:39.830Z,31.45
2023-05-03T18:26:08.570Z,31.75
2023-05-03T18:28:35.686Z,32.43
2023-05-03T18:31:03.968Z,32.91
2023-05-03T18:33:32.961Z,33.02
2023-05-03T18:35:59.781Z,33.63
2023-05-03T18:38:27.126Z,33.85
2023-05-03T18:40:55.980Z,34.01
2023-05-03T18:43:23.194Z,34.38
2023-05-03T18:45:50.081Z,34.60
2023-05-03T18:48:17.404Z,34.64
2023-05-03T18:50:44.436Z,34.74
2023-05-03T18:53:11.472Z,34.92
2023-05-03T18:55:38.358Z,35.01
2023-05-03T18:58:05.580Z,34.97
2023-05-03T19:00:32.621Z,34.95
2023-05-03T19:03:00.250Z,34.80
2023-05-03T19:05:27.197Z,34.92
2023-05-03T19:07:54.112Z,34.79
2023-05-03T19:10:21.189Z,34.60
2023-05-03T19:12:48.253Z,34.70
2023-05-03T19:15:15.264Z,34.77
2023-05-03T19:17:42.696Z,34.62
2023-05-03T19:20:13.023Z,34.85
2023-05-03T19:22:40.058Z,34.72
2023-05-03T19:25:07.958Z,35.02
2023-05-03T19:27:34.966Z,35.47
2023-05-03T19:30:02.327Z,35.33
2023-05-03T19:32:33.529Z,35.23
2023-05-03T19:35:02.479Z,35.36
2023-05-03T19:37:29.477Z,35.54
2023-05-03T19:39:58.103Z,35.46
2023-05-03T19:42:25.053Z,35.49
2023-05-03T19:44:51.863Z,35.47
2023-05-03T19:47:19.050Z,35.38
2023-05-03T19:49:46.049Z,35.43
2023-05-03T19:52:12.850Z,35.62
2023-05-03T19:54:39.784Z,35.54
2023-05-03T19:57:07.677Z,35.84
2023-05-03T19:59:35.639Z,35.85
2023-05-03T20:02:03.430Z,36.03
2023-05-03T20:04:30.656Z,35.90
2023-05-03T20:06:57.544Z,35.94
2023-05-03T20:09:24.652Z,35.87
2023-05-03T20:11:56.307Z,35.92
2023-05-03T20:14:23.180Z,35.99
2023-05-03T20:16:50.085Z,35.95
2023-05-03T20:19:17.494Z,35.96
2023-05-03T20:21:45.052Z,35.84
2023-05-03T20:24:12.083Z,35.87
2023-05-03T20:26:39.215Z,35.98
2023-05-03T20:29:06.253Z,35.90
2023-05-03T20:31:33.220Z,35.89
2023-05-03T20:34:00.664Z,36.00
2023-05-03T20:36:28.247Z,36.09
2023-05-03T20:38:56.092Z,36.22
2023-05-03T20:41:23.361Z,36.46
2023-05-03T20:43:52.296Z,36.40
2023-05-03T20:46:19.411Z,36.50
2023-05-03T20:48:46.435Z,36.47
2023-05-03T20:51:13.487Z,36.49
2023-05-03T20:53:40.683Z,36.52
2023-05-03T20:56:08.273Z,36.41
2023-05-03T20:58:35.377Z,36.29
2023-05-03T21:01:07.014Z,36.44
2023-05-03T21:03:34.600Z,36.39
2023-05-03T21:06:01.580Z,36.43
2023-05-03T21:08:28.513Z,36.60
2023-05-03T21:10:55.650Z,36.65
2023-05-03T21:13:22.745Z,36.71
2023-05-03T21:15:51.244Z,36.87
2023-05-03T21:18:19.172Z,36.91
2023-05-03T21:20:46.529Z,37.12
2023-05-03T21:23:13.631Z,37.08
2023-05-03T21:25:40.671Z,37.44
2023-05-03T21:28:07.606Z,37.63
2023-05-03T21:30:34.689Z,37.52
2023-05-03T21:33:01.736Z,37.55
2023-05-03T21:35:28.975Z,37.62
2023-05-03T21:37:55.897Z,37.58
2023-05-03T21:40:22.903Z,37.54
2023-05-03T21:42:52.278Z,37.53
2023-05-03T21:45:19.666Z,37.80
2023-05-03T21:47:47.093Z,37.70
2023-05-03T21:50:14.342Z,37.73
2023-05-03T21:52:41.600Z,37.77
2023-05-03T21:55:08.858Z,37.88
2023-05-03T21:57:37.056Z,38.00
2023-05-03T22:00:06.007Z,38.01
2023-05-03T22:02:35.443Z,38.18
2023-05-03T22:05:02.706Z,38.35
2023-05-03T22:07:29.829Z,38.69
2023-05-03T22:09:56.806Z,38.85
2023-05-03T22:12:24.789Z,38.74
2023-05-03T22:14:53.171Z,38.91
2023-05-03T22:17:20.485Z,38.85
2023-05-03T22:19:47.533Z,38.88
2023-05-03T22:22:14.415Z,39.06
2023-05-03T22:24:41.718Z,39.19
2023-05-03T22:27:08.525Z,39.25
2023-05-03T22:29:35.425Z,39.51
2023-05-03T22:32:03.268Z,39.69
2023-05-03T22:34:30.438Z,39.70
2023-05-03T22:36:57.476Z,39.69
2023-05-03T22:39:24.364Z,39.76
2023-05-03T22:41:51.280Z,39.87
2023-05-03T22:44:18.249Z,39.84
2023-05-03T22:46:45.057Z,39.93
2023-05-03T22:49:12.074Z,39.82
2023-05-03T22:51:38.970Z,39.88
2023-05-03T22:54:05.980Z,39.78
2023-05-03T22:56:33.058Z,39.79
2023-05-03T22:58:59.943Z,39.88
2023-05-03T23:01:27.527Z,39.92
2023-05-03T23:03:54.802Z,40.29
2023-05-03T23:06:21.876Z,40.59
2023-05-03T23:08:49.225Z,40.71
2023-05-03T23:11:16.271Z,40.89
2023-05-03T23:13:43.420Z,40.99
2023-05-03T23:16:10.709Z,41.11
2023-05-03T23:18:38.029Z,41.15
2023-05-03T23:21:05.081Z,41.34
2023-05-03T23:23:32.042Z,41.70
2023-05-03T23:25:59.075Z,42.03
2023-05-03T23:28:26.748Z,42.14
2023-05-03T23:30:54.306Z,42.24
2023-05-03T23:33:21.752Z,41.97
2023-05-03T23:35:49.131Z,41.63
2023-05-03T23:38:16.531Z,41.42
2023-05-03T23:40:43.730Z,41.36
2023-05-03T23:43:10.523Z,41.35
2023-05-03T23:45:37.417Z,41.28
2023-05-03T23:48:05.156Z,41.05
2023-05-03T23:50:32.337Z,41.02
2023-05-03T23:52:59.705Z,40.91
2023-05-03T23:55:26.675Z,40.89
2023-05-03T23:57:53.682Z,40.90
